Time;durP1;ratioP1;P1;durP2;ratioP2;P2;SDS_P1;SDS_P2;PMS_P1;PMS_P2;Temp;Humidity;BMP_temperature;BMP_pressure;BME280_temperature;BME280_humidity;BME280_pressure;Samples;Min_cycle;Max_cycle;Signal;HPM_P1;HPM_P2
2023/01/07 00:01:47;;;;;;;1.73;0.55;;;;;;;20.09;43.30;101558.53;16124478;19;129023;-48
2023/01/07 00:07:08;;;;;;;2.47;0.43;;;;;;;20.06;43.52;101553.50;16126429;19;129657;-48
2023/01/07 00:12:32;;;;;;;1.40;0.55;;;;;;;20.02;43.18;101555.06;16120730;19;129297;-46
2023/01/07 00:17:54;;;;;;;3.25;0.50;;;;;;;19.99;43.60;101548.03;16124387;19;130590;-48
2023/01/07 00:23:15;;;;;;;0.98;0.40;;;;;;;19.96;43.19;101545.72;16123922;19;129159;-50
2023/01/07 00:28:40;;;;;;;2.42;0.35;;;;;;;19.94;43.41;101536.78;16121023;19;130183;-48
2023/01/07 00:39:24;;;;;;;0.52;0.35;;;;;;;19.87;43.27;101528.56;16120224;19;129839;-46
2023/01/07 00:44:46;;;;;;;2.75;0.35;;;;;;;19.84;43.25;101523.47;16122075;19;130162;-50
2023/01/07 00:50:07;;;;;;;1.08;0.30;;;;;;;19.84;43.23;101526.25;16124803;19;129644;-46
2023/01/07 00:55:30;;;;;;;0.93;0.40;;;;;;;19.80;43.63;101517.56;16121205;19;129682;-45
2023/01/07 01:00:57;;;;;;;1.08;0.20;;;;;;;19.79;43.70;101507.53;16122197;19;129828;-46
2023/01/07 01:06:19;;;;;;;3.00;0.30;;;;;;;19.76;43.65;101504.41;16119775;19;130873;-47
2023/01/07 01:11:41;;;;;;;1.83;0.25;;;;;;;19.75;43.66;101497.16;16119066;19;129802;-49
2023/01/07 01:17:02;;;;;;;1.17;0.50;;;;;;;19.70;43.53;101489.56;16118596;19;129419;-46
2023/01/07 01:22:24;;;;;;;0.50;0.20;;;;;;;19.68;43.43;101484.25;16118914;19;130730;-49
2023/01/07 01:27:46;;;;;;;3.42;0.40;;;;;;;19.66;43.71;101478.09;16133764;19;129154;-45
2023/01/07 01:33:08;;;;;;;1.00;0.20;;;;;;;19.64;43.51;101477.50;16134687;19;133057;-47
2023/01/07 01:38:30;;;;;;;0.70;0.38;;;;;;;19.64;43.56;101471.06;16133213;19;129541;-46
2023/01/07 01:43:51;;;;;;;0.65;0.22;;;;;;;19.60;43.51;101467.09;16128765;19;129322;-47
2023/01/07 01:49:22;;;;;;;0.60;0.20;;;;;;;19.60;43.44;101479.03;16131568;19;129472;-49
2023/01/07 01:54:51;;;;;;;0.85;0.20;;;;;;;19.56;43.17;101460.34;16130220;19;130296;-47
2023/01/07 02:00:15;;;;;;;1.58;0.20;;;;;;;19.54;43.42;101463.38;16131689;19;129914;-48
2023/01/07 02:05:40;;;;;;;1.00;0.55;;;;;;;19.53;43.65;101456.13;16129437;19;129744;-48
2023/01/07 02:11:15;;;;;;;0.50;0.20;;;;;;;19.51;43.50;101450.78;16130271;19;129574;-46
2023/01/07 02:16:52;;;;;;;0.60;0.30;;;;;;;19.49;43.62;101452.13;16127866;19;129456;-47
2023/01/07 02:22:42;;;;;;;0.80;0.30;;;;;;;19.46;43.46;101445.13;16128730;19;129889;-48
2023/01/07 02:28:16;;;;;;;0.30;0.17;;;;;;;19.46;43.39;101452.59;16128089;19;129486;-46
2023/01/07 02:33:49;;;;;;;0.77;0.30;;;;;;;19.44;43.19;101446.47;16127286;19;130994;-48
2023/01/07 02:39:39;;;;;;;3.08;0.30;;;;;;;19.42;43.21;101443.91;16127394;19;128920;-46
2023/01/07 02:45:20;;;;;;;0.35;0.20;;;;;;;19.42;43.26;101437.53;16126800;19;129631;-47
2023/01/07 02:50:42;;;;;;;0.70;0.35;;;;;;;19.37;43.40;101436.31;16126723;19;129599;-48
2023/01/07 02:56:07;;;;;;;0.73;0.30;;;;;;;19.37;43.61;101430.75;16127564;19;133907;-46
2023/01/07 03:01:28;;;;;;;2.45;0.25;;;;;;;19.35;43.37;101427.38;16128902;19;130430;-47
2023/01/07 03:07:18;;;;;;;1.27;0.40;;;;;;;19.36;43.08;101411.59;16127874;19;133694;-46
2023/01/07 03:12:50;;;;;;;0.47;0.30;;;;;;;19.32;43.27;101413.97;16126674;19;130329;-46
2023/01/07 03:18:27;;;;;;;0.63;0.22;;;;;;;19.33;43.27;101412.88;16128520;19;130018;-46
2023/01/07 03:23:55;;;;;;;0.20;0.17;;;;;;;19.31;43.25;101398.44;16129205;19;129640;-45
2023/01/07 03:29:19;;;;;;;0.22;0.13;;;;;;;19.29;43.09;101396.97;16128588;19;129670;-47
2023/01/07 03:34:42;;;;;;;0.57;0.30;;;;;;;19.27;43.52;101391.66;16125780;19;130416;-49
2023/01/07 03:40:08;;;;;;;1.20;0.28;;;;;;;19.25;43.44;101388.28;16123839;19;129499;-46
2023/01/07 03:45:30;;;;;;;0.30;0.20;;;;;;;19.24;43.00;101385.75;16124078;19;129450;-47
2023/01/07 03:50:52;;;;;;;0.68;0.30;;;;;;;19.24;43.45;101378.28;16124652;19;129357;-49
2023/01/07 03:56:14;;;;;;;1.98;0.40;;;;;;;19.23;43.16;101373.81;16126265;19;130595;-47
2023/01/07 04:01:35;;;;;;;2.47;0.20;;;;;;;19.21;43.26;101376.81;16125229;19;130500;-45
2023/01/07 04:06:57;;;;;;;0.52;0.30;;;;;;;19.20;43.04;101366.78;16125974;19;129778;-46
2023/01/07 04:12:19;;;;;;;0.28;0.20;;;;;;;19.19;43.13;101367.88;16123444;19;130537;-46
2023/01/07 04:17:41;;;;;;;0.60;0.30;;;;;;;19.17;43.01;101352.56;16124497;19;130357;-47
2023/01/07 04:23:03;;;;;;;2.22;0.47;;;;;;;19.16;43.38;101345.31;16122726;19;129576;-46
2023/01/07 04:28:24;;;;;;;0.40;0.30;;;;;;;19.15;43.16;101335.31;16122379;19;129935;-47
2023/01/07 04:33:46;;;;;;;0.50;0.30;;;;;;;19.14;42.99;101331.66;16123520;19;130429;-53
2023/01/07 04:39:08;;;;;;;0.45;0.30;;;;;;;19.13;43.07;101329.16;16126632;19;129744;-54
2023/01/07 04:44:30;;;;;;;0.68;0.30;;;;;;;19.12;42.97;101317.22;16124097;19;130653;-54
2023/01/07 04:49:52;;;;;;;1.00;0.30;;;;;;;19.12;42.84;101313.59;16121624;19;129791;-51
2023/01/07 04:55:13;;;;;;;0.90;0.30;;;;;;;19.10;43.27;101297.19;16122166;19;129534;-54
2023/01/07 05:00:35;;;;;;;0.60;0.60;;;;;;;19.08;42.81;101294.66;16134149;19;129570;-53
2023/01/07 05:05:57;;;;;;;0.68;0.30;;;;;;;19.07;43.16;101290.22;16136683;19;130450;-53
2023/01/07 05:11:20;;;;;;;1.15;0.20;;;;;;;19.07;43.19;101287.44;16135243;19;130041;-51
2023/01/07 05:16:42;;;;;;;0.52;0.40;;;;;;;19.07;43.07;101283.81;16139615;19;129805;-48
2023/01/07 05:22:04;;;;;;;1.67;0.20;;;;;;;19.06;42.73;101273.81;16139722;19;129575;-45
2023/01/07 05:27:26;;;;;;;2.80;0.30;;;;;;;19.04;43.16;101265.72;16137234;19;131718;-48
2023/01/07 05:32:47;;;;;;;0.30;0.30;;;;;;;19.03;43.17;101263.19;16135426;19;129672;-45
2023/01/07 05:38:09;;;;;;;0.70;0.30;;;;;;;19.02;42.96;101256.81;16132848;19;130784;-47
2023/01/07 05:43:31;;;;;;;0.30;0.30;;;;;;;19.01;43.15;101252.34;16130398;19;132633;-47
2023/01/07 05:48:53;;;;;;;1.15;0.40;;;;;;;19.00;43.02;101241.50;16133915;19;129780;-49
2023/01/07 05:54:15;;;;;;;0.82;0.40;;;;;;;19.00;43.11;101235.97;16134295;19;129640;-47
2023/01/07 05:59:37;;;;;;;0.22;0.20;;;;;;;18.99;42.83;101218.47;16133571;19;129539;-51
2023/01/07 06:04:59;;;;;;;0.50;0.30;;;;;;;18.97;43.11;101219.81;16130621;19;130340;-49
2023/01/07 06:10:21;;;;;;;0.52;0.30;;;;;;;18.97;43.11;101220.63;16127650;19;131333;-50
2023/01/07 06:15:42;;;;;;;0.35;0.35;;;;;;;18.96;42.90;101207.03;16131286;19;129290;-47
2023/01/07 06:21:04;;;;;;;0.70;0.30;;;;;;;18.95;43.07;101205.34;16133509;19;129447;-50
2023/01/07 06:26:26;;;;;;;1.33;0.40;;;;;;;18.92;42.65;101196.41;16131980;19;130135;-47
2023/01/07 06:31:48;;;;;;;1.02;0.30;;;;;;;18.93;42.62;101191.72;16133621;19;134049;-50
2023/01/07 06:37:10;;;;;;;0.35;0.20;;;;;;;18.90;42.79;101189.44;16131449;19;129325;-45
2023/01/07 06:42:32;;;;;;;0.50;0.20;;;;;;;18.93;42.57;101186.19;16126223;19;130040;-46
2023/01/07 06:47:56;;;;;;;0.45;0.30;;;;;;;19.16;42.74;101190.00;16127695;19;129411;-45
2023/01/07 06:53:18;;;;;;;0.52;0.25;;;;;;;19.56;41.88;101180.91;16127150;19;129344;-48
2023/01/07 06:58:40;;;;;;;0.40;0.20;;;;;;;20.01;41.38;101179.25;16126739;19;129811;-48
2023/01/07 07:04:02;;;;;;;0.13;0.13;;;;;;;20.30;40.70;101176.44;16125907;19;131503;-45
2023/01/07 07:09:23;;;;;;;0.28;0.28;;;;;;;20.45;40.81;101173.94;16125948;19;129533;-49
2023/01/07 07:14:45;;;;;;;0.20;0.20;;;;;;;20.50;40.59;101177.88;16126454;19;130048;-46
2023/01/07 07:20:08;;;;;;;0.10;0.10;;;;;;;20.46;40.68;101171.97;16126951;19;129969;-49
2023/01/07 07:25:29;;;;;;;0.80;0.15;;;;;;;20.41;40.39;101177.47;16125977;19;130233;-47
2023/01/07 07:30:51;;;;;;;0.82;0.20;;;;;;;20.34;40.76;101160.09;16125827;19;129580;-47
2023/01/07 07:36:13;;;;;;;0.22;0.20;;;;;;;20.24;40.58;101161.63;16125281;19;129874;-46
2023/01/07 07:41:35;;;;;;;2.42;0.35;;;;;;;20.17;40.39;101168.44;16121357;19;129679;-48
2023/01/07 07:46:56;;;;;;;0.40;0.25;;;;;;;20.06;40.72;101164.66;16123408;19;129935;-46
2023/01/07 07:52:18;;;;;;;0.20;0.13;;;;;;;19.96;40.88;101155.00;16123036;19;129345;-46
2023/01/07 07:57:40;;;;;;;0.15;0.10;;;;;;;19.88;41.39;101149.84;16124533;19;129946;-45
2023/01/07 08:03:02;;;;;;;0.57;0.30;;;;;;;19.80;41.10;101133.63;16124060;19;129507;-47
2023/01/07 08:08:24;;;;;;;0.45;0.20;;;;;;;19.74;41.14;101134.59;16123668;19;129322;-46
2023/01/07 08:13:46;;;;;;;0.22;0.20;;;;;;;19.65;41.25;101126.69;16124783;19;131389;-48
2023/01/07 08:19:09;;;;;;;0.22;0.22;;;;;;;19.58;41.29;101125.97;16124940;19;130229;-46
2023/01/07 08:24:31;;;;;;;0.98;0.30;;;;;;;19.53;41.62;101115.63;16122890;19;131514;-45
2023/01/07 08:29:54;;;;;;;2.00;0.40;;;;;;;19.51;41.46;101109.47;16121843;19;129523;-46
2023/01/07 08:35:16;;;;;;;6.30;0.50;;;;;;;19.51;41.25;101105.88;16121443;19;129917;-45
2023/01/07 08:40:38;;;;;;;1.48;0.30;;;;;;;19.54;41.03;101088.72;16118801;19;129280;-45
2023/01/07 08:45:59;;;;;;;5.68;0.52;;;;;;;19.61;40.93;101081.06;16118445;19;129288;-44
2023/01/07 08:51:21;;;;;;;4.70;0.40;;;;;;;19.65;40.70;101065.63;16119205;19;130451;-45
2023/01/07 08:56:43;;;;;;;17.02;1.05;;;;;;;19.65;40.40;101068.41;16117417;19;130491;-46
2023/01/07 09:02:09;;;;;;;5.43;0.70;;;;;;;19.66;40.29;101060.91;16117341;19;130162;-44
2023/01/07 09:07:31;;;;;;;1.90;0.63;;;;;;;19.68;40.46;101056.78;16115151;19;131046;-45
2023/01/07 09:12:53;;;;;;;3.22;0.60;;;;;;;19.68;40.65;101056.78;16118774;19;130451;-44
2023/01/07 09:18:15;;;;;;;1.48;0.40;;;;;;;19.73;40.23;101049.63;16117798;19;129757;-46
2023/01/07 09:23:36;;;;;;;5.18;0.55;;;;;;;19.76;40.52;101038.88;16119013;19;129345;-46
2023/01/07 09:28:58;;;;;;;3.20;0.50;;;;;;;19.81;40.53;101035.34;16116334;19;130837;-45
2023/01/07 09:34:20;;;;;;;2.45;0.60;;;;;;;19.85;40.82;101030.97;16116203;19;129195;-45
2023/01/07 09:39:42;;;;;;;3.03;0.47;;;;;;;19.83;40.76;101022.91;16117481;19;129548;-47
2023/01/07 09:45:17;;;;;;;4.13;0.52;;;;;;;19.86;40.72;101010.44;16118103;19;129564;-45
2023/01/07 09:50:45;;;;;;;8.18;0.63;;;;;;;19.86;40.83;100993.78;16127817;19;130565;-44
2023/01/07 09:56:24;;;;;;;5.57;0.90;;;;;;;19.87;40.99;100989.91;16128848;19;129933;-45
2023/01/07 10:01:58;;;;;;;9.68;0.93;;;;;;;19.89;41.25;100986.88;16131615;19;129669;-44
2023/01/07 10:07:37;;;;;;;5.00;0.82;;;;;;;19.87;41.51;100972.44;16129618;19;130110;-48
2023/01/07 10:13:30;;;;;;;11.35;1.30;;;;;;;19.84;41.20;100955.19;16121997;19;130588;-46
2023/01/07 10:19:31;;;;;;;8.10;1.02;;;;;;;19.80;41.35;100950.41;16121872;19;130176;-46
2023/01/07 10:24:59;;;;;;;7.63;1.30;;;;;;;19.73;41.37;100956.13;16127062;19;130115;-47
2023/01/07 10:30:25;;;;;;;5.22;0.68;;;;;;;19.69;41.16;100944.66;16128898;19;129340;-46
2023/01/07 10:36:09;;;;;;;8.65;0.80;;;;;;;19.65;41.16;100942.63;16128801;19;129629;-45
2023/01/07 10:41:53;;;;;;;9.30;0.82;;;;;;;19.62;41.52;100932.91;16118554;19;130424;-46
2023/01/07 10:47:56;;;;;;;5.70;0.60;;;;;;;19.59;41.59;100902.88;16126176;19;131230;-45
2023/01/07 10:53:48;;;;;;;4.10;0.77;;;;;;;19.58;41.26;100903.97;16126466;19;130696;-48
2023/01/07 10:59:14;;;;;;;8.68;1.20;;;;;;;19.55;41.50;100882.28;16125855;19;129908;-45
2023/01/07 11:04:36;;;;;;;4.57;0.90;;;;;;;19.50;41.78;100862.78;16125406;19;129925;-44
2023/01/07 11:10:03;;;;;;;4.63;0.52;;;;;;;19.50;41.50;100851.69;16126986;19;130446;-45
2023/01/07 11:15:44;;;;;;;3.78;0.63;;;;;;;19.55;41.28;100837.91;16122847;19;130189;-45
2023/01/07 11:21:05;;;;;;;2.30;0.70;;;;;;;19.59;41.13;100822.41;16123254;19;129427;-45
2023/01/07 11:26:33;;;;;;;2.08;0.50;;;;;;;19.71;41.13;100818.66;16122488;19;129478;-47
2023/01/07 11:31:59;;;;;;;1.13;0.60;;;;;;;19.80;40.82;100801.31;16123215;19;129723;-47
2023/01/07 11:37:33;;;;;;;2.53;0.68;;;;;;;19.89;40.85;100795.31;16120941;19;129593;-45
2023/01/07 11:42:56;;;;;;;6.68;0.80;;;;;;;19.94;40.71;100785.09;16124631;19;129953;-45
2023/01/07 11:48:33;;;;;;;6.40;0.93;;;;;;;20.03;40.73;100776.38;16122848;19;129710;-46
2023/01/07 11:53:57;;;;;;;9.27;0.82;;;;;;;20.07;40.61;100766.41;16122525;19;130423;-46
2023/01/07 11:59:19;;;;;;;3.38;0.77;;;;;;;20.11;40.68;100762.00;16120472;19;129012;-48
2023/01/07 12:04:41;;;;;;;2.42;0.70;;;;;;;20.12;40.97;100741.47;16119530;19;130943;-46
2023/01/07 12:10:21;;;;;;;3.28;0.68;;;;;;;20.11;41.22;100739.78;16119438;19;131103;-47
2023/01/07 12:16:00;;;;;;;6.88;0.90;;;;;;;20.04;40.70;100740.00;16117694;19;130855;-48
2023/01/07 12:21:28;;;;;;;4.18;0.73;;;;;;;19.92;40.76;100737.34;16118103;19;129917;-46
2023/01/07 12:27:33;;;;;;;6.35;0.90;;;;;;;19.83;40.06;100722.22;16122787;19;129647;-46
2023/01/07 12:33:10;;;;;;;5.90;0.80;;;;;;;19.73;40.06;100713.78;16120890;19;129906;-45
2023/01/07 12:38:39;;;;;;;3.47;0.65;;;;;;;19.60;39.94;100709.47;16121011;19;130072;-45
2023/01/07 12:44:10;;;;;;;8.10;1.45;;;;;;;19.55;39.52;100699.16;16118146;19;130612;-48
2023/01/07 12:49:45;;;;;;;5.63;1.00;;;;;;;19.47;37.79;100671.84;16119313;19;129873;-45
2023/01/07 12:55:24;;;;;;;2.23;0.90;;;;;;;19.36;36.58;100680.03;16118597;19;129805;-50
2023/01/07 13:00:51;;;;;;;2.15;0.68;;;;;;;19.25;36.30;100639.41;16118674;19;129676;-44
2023/01/07 13:06:19;;;;;;;2.17;0.57;;;;;;;19.19;35.84;100632.09;16116998;19;130277;-44
2023/01/07 13:17:50;;;;;;;9.43;0.75;;;;;;;19.40;35.95;100601.84;16121145;19;129450;-44
2023/01/07 13:23:49;;;;;;;4.35;0.68;;;;;;;19.59;35.70;100597.63;16131209;19;129360;-44
2023/01/07 13:29:23;;;;;;;1.42;0.50;;;;;;;19.77;35.75;100592.81;16134400;19;130437;-45
2023/01/07 13:35:12;;;;;;;1.75;0.50;;;;;;;19.89;35.87;100581.53;16125736;19;130699;-45
2023/01/07 13:40:43;;;;;;;4.03;0.60;;;;;;;19.99;36.34;100570.56;16121570;19;132502;-45
2023/01/07 13:46:11;;;;;;;7.22;0.63;;;;;;;20.05;36.04;100557.56;16123191;19;129904;-46
2023/01/07 13:51:36;;;;;;;5.28;0.68;;;;;;;20.07;36.67;100556.19;16124660;19;129182;-45
2023/01/07 13:57:18;;;;;;;2.67;0.90;;;;;;;20.07;36.53;100555.34;16133088;19;130185;-45
2023/01/07 14:02:56;;;;;;;3.67;0.88;;;;;;;20.08;36.11;100557.03;16129450;19;130133;-44
2023/01/07 14:08:27;;;;;;;5.78;0.93;;;;;;;20.11;36.50;100557.34;16131516;19;129567;-47
2023/01/07 14:14:00;;;;;;;5.43;0.90;;;;;;;20.17;36.10;100537.94;16131917;19;130085;-45
2023/01/07 14:19:44;;;;;;;6.50;0.70;;;;;;;20.24;36.19;100533.81;16130764;19;129787;-47
2023/01/07 14:25:24;;;;;;;4.63;0.75;;;;;;;20.31;36.17;100527.22;16129346;19;129415;-44
2023/01/07 14:30:48;;;;;;;4.47;0.73;;;;;;;20.33;36.04;100524.97;16128224;19;130429;-46
2023/01/07 14:36:11;;;;;;;7.07;0.60;;;;;;;20.33;35.88;100524.97;16130833;19;129282;-46
2023/01/07 14:41:33;;;;;;;3.58;0.60;;;;;;;20.33;35.83;100525.84;16129300;19;129675;-45
2023/01/07 14:46:55;;;;;;;2.05;0.98;;;;;;;20.33;36.29;100527.75;16127788;19;129592;-47
2023/01/07 14:52:47;;;;;;;7.80;0.93;;;;;;;20.34;36.03;100524.75;16126347;19;130244;-47
2023/01/07 14:58:31;;;;;;;3.03;0.60;;;;;;;20.28;36.06;100520.22;16127271;19;129738;-44
2023/01/07 15:04:28;;;;;;;1.92;0.65;;;;;;;20.23;35.90;100509.09;16120693;19;130810;-45
2023/01/07 15:21:29;;;;;;;1.95;0.65;;;;;;;20.16;35.96;100489.91;16123612;19;131045;-44
2023/01/07 15:27:04;;;;;;;2.95;0.80;;;;;;;20.17;36.51;100479.63;16127121;19;129748;-46
2023/01/07 15:32:33;;;;;;;1.27;0.60;;;;;;;20.21;36.20;100476.03;16119475;19;129890;-46
2023/01/07 15:37:56;;;;;;;0.55;0.30;;;;;;;20.24;36.31;100471.91;16120526;19;130276;-43
2023/01/07 15:43:22;;;;;;;1.63;0.68;;;;;;;20.31;35.63;100457.78;16119494;19;130031;-44
2023/01/07 15:48:44;;;;;;;1.73;0.55;;;;;;;20.36;35.78;100457.78;16121896;19;129214;-45
2023/01/07 15:54:24;;;;;;;1.23;0.55;;;;;;;20.41;35.58;100443.94;16121496;19;130150;-45
2023/01/07 15:59:49;;;;;;;1.20;0.55;;;;;;;20.43;35.58;100439.75;16123574;19;129697;-45
2023/01/07 16:05:11;;;;;;;3.67;1.00;;;;;;;20.43;35.80;100453.66;16120809;19;130603;-46
2023/01/07 16:10:34;;;;;;;1.60;0.63;;;;;;;20.42;35.65;100453.94;16120933;19;129663;-45
2023/01/07 16:16:01;;;;;;;3.45;0.63;;;;;;;20.37;35.93;100451.13;16122476;19;129752;-47
2023/01/07 16:21:55;;;;;;;2.35;0.60;;;;;;;20.31;35.75;100468.88;16121521;19;129559;-44
2023/01/07 16:27:26;;;;;;;3.70;0.80;;;;;;;20.21;36.32;100448.25;16119158;19;129504;-49
2023/01/07 16:32:48;;;;;;;6.88;0.77;;;;;;;20.12;36.47;100442.34;16120353;19;129578;-49
2023/01/07 16:38:12;;;;;;;4.00;0.85;;;;;;;20.09;36.25;100450.41;16121447;19;129905;-52
2023/01/07 16:43:42;;;;;;;5.55;0.90;;;;;;;20.07;36.52;100449.81;16121228;19;129620;-46
2023/01/07 16:49:25;;;;;;;7.53;1.30;;;;;;;20.05;36.80;100438.19;16118658;19;129621;-52
2023/01/07 16:54:48;;;;;;;14.65;2.45;;;;;;;20.01;37.05;100431.47;16128438;19;130654;-49
2023/01/07 17:00:18;;;;;;;19.23;5.78;;;;;;;19.97;37.33;100445.84;16135182;19;129920;-50
2023/01/07 17:05:40;;;;;;;21.73;5.80;;;;;;;19.92;37.04;100431.97;16134063;19;130343;-49
2023/01/07 17:11:21;;;;;;;15.02;4.78;;;;;;;19.90;37.47;100434.16;16135600;19;129252;-47
2023/01/07 17:16:43;;;;;;;14.63;4.93;;;;;;;19.86;37.20;100432.19;16133413;19;129639;-51
2023/01/07 17:22:28;;;;;;;11.20;3.60;;;;;;;19.83;37.24;100400.22;16131279;19;129952;-52
2023/01/07 17:27:55;;;;;;;12.70;3.58;;;;;;;19.79;37.55;100393.56;16125345;19;131369;-50
2023/01/07 17:33:19;;;;;;;8.85;3.38;;;;;;;19.76;37.48;100382.97;16125373;19;130439;-57
2023/01/07 17:38:41;;;;;;;7.28;2.78;;;;;;;19.72;37.94;100388.25;16136572;19;130795;-56
2023/01/07 17:44:05;;;;;;;8.15;3.00;;;;;;;19.70;38.00;100398.75;16130875;19;130485;-55
2023/01/07 17:49:27;;;;;;;9.80;2.70;;;;;;;19.65;37.68;100380.13;16132790;19;131086;-56
2023/01/07 17:54:48;;;;;;;8.93;3.45;;;;;;;19.63;38.31;100374.00;16134042;19;131043;-54
2023/01/07 18:00:16;;;;;;;9.65;3.10;;;;;;;19.72;38.29;100365.19;16129616;19;130934;-55
2023/01/07 18:05:40;;;;;;;15.00;3.70;;;;;;;19.84;38.36;100375.00;16124463;19;129722;-57
2023/01/07 18:16:42;;;;;;;28.35;5.32;;;;;;;20.44;38.46;100385.88;16132012;19;130002;-52
2023/01/07 18:22:04;;;;;;;13.50;4.82;;;;;;;20.73;37.82;100379.00;16132828;19;129509;-49
2023/01/07 18:27:26;;;;;;;16.75;4.47;;;;;;;21.04;37.80;100385.50;16133300;19;134830;-51
2023/01/07 18:32:51;;;;;;;13.32;4.25;;;;;;;21.35;37.80;100379.13;16131107;19;130093;-59
2023/01/07 18:38:15;;;;;;;17.55;3.60;;;;;;;21.63;37.45;100368.56;16129987;19;129702;-52
2023/01/07 18:43:37;;;;;;;24.88;4.20;;;;;;;21.74;37.34;100364.66;16128648;19;130449;-55
2023/01/07 18:48:59;;;;;;;16.75;3.78;;;;;;;21.80;37.10;100368.25;16127255;19;129631;-53
2023/01/07 18:54:21;;;;;;;12.60;3.67;;;;;;;21.78;37.08;100374.13;16125652;19;129624;-53
2023/01/07 18:59:43;;;;;;;14.90;3.53;;;;;;;21.71;37.01;100376.34;16127761;19;130173;-50
2023/01/07 19:05:05;;;;;;;16.02;3.28;;;;;;;21.64;37.20;100384.16;16122464;19;130842;-51
2023/01/07 19:10:27;;;;;;;11.93;3.08;;;;;;;21.50;37.50;100387.50;16127375;19;131039;-51
2023/01/07 19:15:49;;;;;;;11.98;3.08;;;;;;;21.39;37.56;100374.69;16126650;19;129406;-49
2023/01/07 19:21:11;;;;;;;11.45;3.00;;;;;;;21.30;37.55;100370.75;16125528;19;129363;-50
2023/01/07 19:26:34;;;;;;;13.95;3.03;;;;;;;21.17;37.90;100372.16;16128154;19;130467;-49
2023/01/07 19:31:55;;;;;;;9.32;2.53;;;;;;;21.08;37.75;100363.53;16124383;19;129301;-48
2023/01/07 19:37:18;;;;;;;8.20;2.58;;;;;;;21.05;38.13;100336.25;16125381;19;129722;-49
2023/01/07 19:42:39;;;;;;;8.98;2.53;;;;;;;21.11;38.06;100337.94;16122810;19;129979;-51
2023/01/07 19:48:01;;;;;;;7.13;1.92;;;;;;;21.31;37.99;100353.81;16119837;19;130976;-46
2023/01/07 19:53:24;;;;;;;8.32;1.80;;;;;;;21.59;37.33;100336.81;16120488;19;129684;-59
2023/01/07 19:58:46;;;;;;;10.57;1.50;;;;;;;21.87;37.40;100335.38;16122599;19;130749;-52
2023/01/07 20:04:07;;;;;;;5.20;1.40;;;;;;;22.09;36.76;100342.56;16122008;19;129669;-54
2023/01/07 20:09:29;;;;;;;12.48;1.42;;;;;;;22.26;36.67;100325.53;16121305;19;129629;-57
2023/01/07 20:14:51;;;;;;;8.50;1.33;;;;;;;22.28;36.44;100335.25;16120337;19;129684;-53
2023/01/07 20:20:13;;;;;;;7.35;1.17;;;;;;;22.28;36.40;100342.75;16122689;19;131038;-54
2023/01/07 20:25:35;;;;;;;8.57;0.98;;;;;;;22.21;36.66;100325.53;16118010;19;130692;-52
2023/01/07 20:30:56;;;;;;;5.28;1.45;;;;;;;22.10;36.69;100316.34;16117355;19;129526;-56
2023/01/07 20:36:22;;;;;;;3.47;1.17;;;;;;;22.03;36.36;100313.84;16116261;19;130255;-53
2023/01/07 20:41:44;;;;;;;1.98;0.90;;;;;;;22.02;36.52;100315.00;16119168;19;129562;-53
2023/01/07 20:47:06;;;;;;;4.50;1.05;;;;;;;22.12;36.64;100309.38;16119608;19;129496;-57
2023/01/07 20:52:28;;;;;;;4.03;1.13;;;;;;;22.21;36.29;100303.25;16115537;19;129475;-54
2023/01/07 20:57:49;;;;;;;5.90;1.23;;;;;;;22.29;36.29;100294.28;16116801;19;129818;-51
2023/01/07 21:03:11;;;;;;;3.00;0.70;;;;;;;22.43;35.88;100311.22;16118197;19;129990;-54
2023/01/07 21:08:33;;;;;;;4.55;0.90;;;;;;;22.52;36.31;100298.34;16114939;19;129438;-48
2023/01/07 21:13:55;;;;;;;2.20;0.65;;;;;;;22.50;36.12;100302.53;16118078;19;129940;-54
2023/01/07 21:19:17;;;;;;;0.98;0.50;;;;;;;22.41;35.89;100297.53;16116645;19;130919;-51
2023/01/07 21:24:38;;;;;;;3.10;0.50;;;;;;;22.31;36.07;100297.63;16118309;19;129681;-49
2023/01/07 21:30:00;;;;;;;3.25;0.80;;;;;;;22.19;36.48;100297.09;16115073;19;131173;-53
2023/01/07 21:35:26;;;;;;;2.17;0.68;;;;;;;22.06;36.23;100298.56;16112598;19;130249;-49
2023/01/07 21:40:48;;;;;;;5.18;0.80;;;;;;;21.93;36.29;100292.47;16119716;19;129432;-52
2023/01/07 21:46:10;;;;;;;1.77;0.85;;;;;;;21.79;36.51;100289.44;16127121;19;129733;-51
2023/01/07 21:51:33;;;;;;;6.70;0.90;;;;;;;21.66;36.76;100292.84;16129158;19;130120;-52
2023/01/07 21:56:54;;;;;;;3.33;0.50;;;;;;;21.52;37.04;100278.66;16128515;19;129739;-55
2023/01/07 22:02:17;;;;;;;2.63;0.60;;;;;;;21.41;36.85;100263.94;16132444;19;129700;-55
2023/01/07 22:07:39;;;;;;;5.35;0.75;;;;;;;21.29;37.05;100268.97;16128006;19;129974;-55
2023/01/07 22:13:01;;;;;;;2.20;0.80;;;;;;;21.19;37.12;100265.06;16131434;19;129749;-55
2023/01/07 22:18:22;;;;;;;1.65;0.68;;;;;;;21.08;37.16;100268.97;16129273;19;129491;-56
2023/01/07 22:23:45;;;;;;;1.85;0.70;;;;;;;20.99;37.11;100270.66;16129109;19;130614;-56
2023/01/07 22:29:07;;;;;;;2.92;0.50;;;;;;;20.88;37.32;100286.47;16129999;19;129619;-55
2023/01/07 22:34:29;;;;;;;4.95;0.60;;;;;;;20.79;37.20;100297.34;16126580;19;129647;-55
2023/01/07 22:39:57;;;;;;;2.47;0.50;;;;;;;20.73;37.45;100301.19;16128496;19;129330;-55
2023/01/07 22:45:38;;;;;;;1.25;0.52;;;;;;;20.68;37.65;100298.38;16127775;19;129427;-55
2023/01/07 22:51:05;;;;;;;0.80;0.50;;;;;;;20.63;37.83;100287.28;16124378;19;131485;-54
2023/01/07 22:56:27;;;;;;;2.67;0.60;;;;;;;20.57;37.88;100280.88;16126877;19;135978;-54
2023/01/07 23:01:49;;;;;;;2.78;0.60;;;;;;;20.51;37.70;100271.69;16126834;19;131672;-55
2023/01/07 23:07:11;;;;;;;3.30;0.70;;;;;;;20.48;37.65;100269.47;16119850;19;130032;-55
2023/01/07 23:12:32;;;;;;;2.15;0.45;;;;;;;20.45;37.48;100264.44;16120609;19;129440;-55
2023/01/07 23:17:54;;;;;;;3.53;0.68;;;;;;;20.38;37.76;100261.94;16123725;19;130710;-47
2023/01/07 23:23:16;;;;;;;1.27;0.40;;;;;;;20.34;37.96;100251.63;16126346;19;129763;-52
2023/01/07 23:28:38;;;;;;;2.28;0.60;;;;;;;20.29;38.08;100258.88;16124216;19;129078;-48
2023/01/07 23:34:00;;;;;;;2.30;0.52;;;;;;;20.24;37.70;100253.28;16124484;19;129925;-51
2023/01/07 23:39:22;;;;;;;2.78;0.55;;;;;;;20.22;38.13;100249.13;16124399;19;129758;-49
2023/01/07 23:44:43;;;;;;;0.68;0.60;;;;;;;20.18;38.13;100246.06;16124690;19;129435;-50
2023/01/07 23:50:06;;;;;;;1.92;0.63;;;;;;;20.14;38.21;100244.94;16128100;19;130235;-49
2023/01/07 23:55:28;;;;;;;1.95;0.50;;;;;;;20.12;38.06;100256.31;16126084;19;129835;-51
